GIA842 WADD-WSSS
Flight info
| Callsign | GIA842 |
|---|---|
| Flight time | N/A |
| Altitude | 34000 |
| Route | BORGI DCT UDONO M635 SUMDI/N0466F360 M635 SURGA T23 UGEBO UGEBO1B |
| Aircraft | B738/M-SDE2E3FGHIRWYZ/LB1 |
Departure
| Time | 2026-05-06 05:05 |
|---|---|
| Airport | Denpasar I Gusti Ngurah Rai International Airport (WADD) |
Arrival
| Time | N/A |
|---|---|
| Airport | Singapore Changi Airport (WSSS) |
| Time | Latitude | Longitude | Altitude | Speed | Heading |
|---|---|---|---|---|---|
| 2026-05-06 04:45 | -8.74574 | 115.16275 | 32 ft | 0 kts | 358° |
| 2026-05-06 04:58 | -8.74592 | 115.16275 | 30 ft | 4 kts | 358° |
| 2026-05-06 04:58 | -8.74620 | 115.16277 | 31 ft | 4 kts | 358° |
| 2026-05-06 04:58 | -8.74647 | 115.16278 | 29 ft | 4 kts | 357° |
| 2026-05-06 04:59 | -8.74671 | 115.16279 | 31 ft | 4 kts | 354° |
| 2026-05-06 04:59 | -8.74692 | 115.16287 | 30 ft | 4 kts | 297° |
| 2026-05-06 04:59 | -8.74696 | 115.16311 | 28 ft | 2 kts | 268° |
| 2026-05-06 04:59 | -8.74696 | 115.16317 | 29 ft | 0 kts | 268° |
| 2026-05-06 05:01 | -8.74696 | 115.16309 | 32 ft | 2 kts | 267° |
| 2026-05-06 05:02 | -8.74698 | 115.16283 | 32 ft | 5 kts | 267° |
| 2026-05-06 05:02 | -8.74699 | 115.16238 | 32 ft | 8 kts | 268° |
| 2026-05-06 05:02 | -8.74702 | 115.16173 | 32 ft | 11 kts | 268° |
| 2026-05-06 05:02 | -8.74705 | 115.16090 | 32 ft | 13 kts | 268° |
| 2026-05-06 05:03 | -8.74709 | 115.15991 | 32 ft | 15 kts | 267° |
| 2026-05-06 05:03 | -8.74714 | 115.15875 | 32 ft | 18 kts | 268° |
| 2026-05-06 05:03 | -8.74719 | 115.15743 | 31 ft | 20 kts | 267° |
| 2026-05-06 05:03 | -8.74725 | 115.15598 | 31 ft | 19 kts | 268° |
| 2026-05-06 05:04 | -8.74730 | 115.15475 | 31 ft | 11 kts | 268° |
| 2026-05-06 05:04 | -8.74763 | 115.15399 | 31 ft | 13 kts | 208° |
| 2026-05-06 05:04 | -8.74863 | 115.15397 | 27 ft | 12 kts | 166° |
| 2026-05-06 05:04 | -8.74895 | 115.15469 | 28 ft | 13 kts | 87° |
| 2026-05-06 05:05 | -8.74890 | 115.15599 | 28 ft | 40 kts | 88° |
| 2026-05-06 05:05 | -8.74867 | 115.16120 | 28 ft | 107 kts | 87° |
| 2026-05-06 05:05 | -8.74844 | 115.17069 | 52 ft | 159 kts | 90° |
| 2026-05-06 05:05 | -8.74825 | 115.18173 | 798 ft | 153 kts | 89° |
| 2026-05-06 05:06 | -8.74809 | 115.19283 | 1444 ft | 169 kts | 88° |
| 2026-05-06 05:06 | -8.74748 | 115.20595 | 1732 ft | 200 kts | 87° |
| 2026-05-06 05:06 | -8.74673 | 115.22078 | 2049 ft | 221 kts | 89° |
| 2026-05-06 05:06 | -8.74598 | 115.23718 | 2363 ft | 245 kts | 88° |
| 2026-05-06 05:07 | -8.74516 | 115.25473 | 3003 ft | 253 kts | 87° |